createdAt,value
2019-05-03T00:02:13.369Z,8.10
2019-05-03T00:04:43.842Z,8.00
2019-05-03T00:07:16.075Z,7.90
2019-05-03T00:09:44.770Z,8.00
2019-05-03T00:12:13.642Z,8.20
2019-05-03T00:14:43.873Z,8.30
2019-05-03T00:17:19.012Z,8.40
2019-05-03T00:19:47.628Z,8.50
2019-05-03T00:22:21.968Z,8.20
2019-05-03T00:25:04.475Z,8.20
2019-05-03T00:27:21.779Z,8.20
2019-05-03T00:29:52.277Z,8.30
2019-05-03T00:32:21.650Z,8.40
2019-05-03T00:34:57.817Z,8.50
2019-05-03T00:37:28.094Z,8.70
2019-05-03T00:40:07.130Z,8.80
2019-05-03T00:42:35.955Z,8.90
2019-05-03T00:45:08.997Z,8.80
2019-05-03T00:47:37.863Z,8.50
2019-05-03T00:50:17.322Z,8.30
2019-05-03T00:52:47.049Z,8.20
2019-05-03T00:55:19.323Z,8.40
2019-05-03T00:57:49.810Z,8.50
2019-05-03T01:00:18.734Z,8.50
2019-05-03T01:02:52.665Z,8.50
2019-05-03T01:05:24.578Z,8.40
2019-05-03T01:07:57.565Z,8.40
2019-05-03T01:10:26.596Z,8.30
2019-05-03T01:12:55.197Z,8.40
2019-05-03T01:15:25.528Z,8.30
2019-05-03T01:17:54.326Z,8.20
2019-05-03T01:20:23.094Z,8.10
2019-05-03T01:22:51.950Z,8.00
2019-05-03T01:25:30.109Z,7.90
2019-05-03T01:27:52.182Z,7.90
2019-05-03T01:30:22.641Z,7.80
2019-05-03T01:32:52.322Z,7.80
2019-05-03T01:35:21.929Z,7.70
2019-05-03T01:37:51.706Z,7.70
2019-05-03T01:40:22.021Z,7.60
2019-05-03T01:42:51.859Z,7.60
2019-05-03T01:45:22.610Z,7.60
2019-05-03T01:47:58.398Z,7.70
2019-05-03T01:50:38.168Z,7.40
2019-05-03T01:53:12.522Z,7.40
2019-05-03T01:55:53.057Z,7.60
2019-05-03T01:58:24.461Z,7.70
2019-05-03T02:00:57.734Z,7.80
2019-05-03T02:03:32.455Z,8.00
2019-05-03T02:06:02.411Z,8.10
2019-05-03T02:08:32.652Z,8.10
2019-05-03T02:11:05.022Z,8.20
2019-05-03T02:13:33.725Z,8.10
2019-05-03T02:16:02.509Z,8.20
2019-05-03T02:18:31.822Z,8.30
2019-05-03T02:21:01.659Z,8.30
2019-05-03T02:23:31.988Z,8.40
2019-05-03T02:26:02.910Z,8.20
2019-05-03T02:28:32.676Z,8.20
2019-05-03T02:31:07.628Z,8.10
2019-05-03T02:33:38.857Z,7.90
2019-05-03T02:36:07.597Z,7.80
2019-05-03T02:38:36.367Z,7.60
2019-05-03T02:41:07.866Z,7.50
2019-05-03T02:43:38.121Z,7.50
2019-05-03T02:46:08.513Z,7.60
2019-05-03T02:48:41.509Z,7.70
2019-05-03T02:51:10.142Z,7.60
2019-05-03T02:53:45.677Z,7.60
2019-05-03T02:56:21.985Z,7.50
2019-05-03T02:58:50.532Z,7.40
2019-05-03T03:01:21.414Z,7.50
2019-05-03T03:03:50.699Z,7.60
2019-05-03T03:06:20.321Z,7.80
2019-05-03T03:08:50.544Z,7.80
2019-05-03T03:11:20.000Z,7.90
2019-05-03T03:13:50.893Z,7.90
2019-05-03T03:16:21.274Z,7.90
2019-05-03T03:18:55.883Z,8.10
2019-05-03T03:21:27.575Z,8.20
2019-05-03T03:24:06.094Z,8.30
2019-05-03T03:26:42.890Z,8.30
2019-05-03T03:29:10.807Z,8.30
2019-05-03T03:31:58.143Z,8.30
2019-05-03T03:34:38.832Z,8.30
2019-05-03T03:37:10.256Z,8.50
2019-05-03T03:39:41.279Z,8.60
2019-05-03T03:42:16.766Z,8.50
2019-05-03T03:45:16.325Z,8.60
2019-05-03T03:47:52.100Z,8.60
2019-05-03T03:50:25.990Z,8.60
2019-05-03T03:52:58.366Z,8.60
2019-05-03T03:56:16.412Z,8.70
2019-05-03T03:58:55.578Z,8.80
2019-05-03T04:01:27.094Z,8.90
2019-05-03T04:04:01.831Z,8.90
2019-05-03T04:06:43.031Z,9.00
2019-05-03T04:09:11.888Z,9.10
2019-05-03T04:11:46.175Z,9.00
2019-05-03T04:14:52.125Z,8.80
2019-05-03T04:17:26.493Z,8.70
2019-05-03T04:19:57.096Z,8.40
2019-05-03T04:22:31.511Z,8.20
2019-05-03T04:25:21.507Z,8.10
2019-05-03T04:27:51.791Z,8.10
2019-05-03T04:30:20.508Z,8.10
2019-05-03T04:32:49.306Z,8.00
2019-05-03T04:35:26.217Z,8.10
2019-05-03T04:37:55.827Z,8.20
2019-05-03T04:40:26.725Z,8.40
2019-05-03T04:42:58.249Z,8.70
2019-05-03T04:45:30.997Z,8.90
2019-05-03T04:48:05.708Z,9.00
2019-05-03T04:50:39.033Z,9.10
2019-05-03T04:53:26.132Z,9.20
2019-05-03T04:55:57.854Z,9.30
2019-05-03T04:58:40.703Z,9.40
2019-05-03T05:01:15.558Z,9.40
2019-05-03T05:03:48.917Z,9.30
2019-05-03T05:06:25.784Z,9.50
2019-05-03T05:08:59.326Z,9.60
2019-05-03T05:11:35.069Z,9.80
2019-05-03T05:14:10.640Z,9.70
2019-05-03T05:16:39.793Z,9.80
2019-05-03T05:19:16.273Z,10.00
2019-05-03T05:21:46.600Z,10.00
2019-05-03T05:24:21.149Z,10.00
2019-05-03T05:27:05.327Z,10.00
2019-05-03T05:29:38.647Z,10.00
2019-05-03T05:32:10.327Z,10.30
2019-05-03T05:34:41.412Z,10.30
2019-05-03T05:37:10.428Z,10.30
2019-05-03T05:39:45.224Z,10.20
2019-05-03T05:42:14.876Z,10.20
2019-05-03T05:44:49.712Z,10.00
2019-05-03T05:47:22.980Z,10.10
2019-05-03T05:50:05.592Z,10.30
2019-05-03T05:52:56.629Z,10.40
2019-05-03T05:55:39.828Z,10.60
2019-05-03T05:58:10.177Z,10.70
2019-05-03T06:00:47.653Z,10.70
2019-05-03T06:03:16.216Z,10.90
2019-05-03T06:05:50.835Z,11.10
2019-05-03T06:08:25.126Z,11.00
2019-05-03T06:11:15.800Z,11.20
2019-05-03T06:13:54.615Z,11.20
2019-05-03T06:17:05.481Z,11.30
2019-05-03T06:19:52.011Z,11.30
2019-05-03T06:22:25.697Z,11.40
2019-05-03T06:24:58.957Z,11.30
2019-05-03T06:28:21.178Z,11.30
2019-05-03T06:33:47.876Z,11.70
2019-05-03T06:36:45.120Z,11.60
2019-05-03T06:39:25.086Z,11.70
2019-05-03T06:41:56.822Z,11.70
2019-05-03T06:44:29.936Z,11.80
2019-05-03T06:47:06.048Z,12.00
2019-05-03T06:49:39.185Z,12.20
2019-05-03T06:52:10.748Z,12.30
2019-05-03T06:54:47.104Z,12.60
2019-05-03T06:57:21.700Z,12.70
2019-05-03T07:00:15.445Z,12.90
2019-05-03T07:02:54.640Z,13.10
2019-05-03T07:05:35.548Z,13.10
2019-05-03T07:08:05.905Z,13.20
2019-05-03T07:10:40.145Z,13.40
2019-05-03T07:13:09.932Z,13.50
2019-05-03T07:15:59.731Z,13.60
2019-05-03T07:18:31.489Z,13.50
2019-05-03T07:21:04.714Z,13.60
2019-05-03T07:23:35.030Z,13.90
2019-05-03T07:26:05.352Z,14.00
2019-05-03T07:28:47.114Z,13.90
2019-05-03T07:31:11.698Z,13.70
2019-05-03T07:33:46.333Z,13.10
2019-05-03T07:36:20.940Z,12.70
2019-05-03T07:38:52.658Z,12.40
2019-05-03T07:41:28.179Z,12.60
2019-05-03T07:44:05.340Z,13.10
2019-05-03T07:46:37.329Z,13.10
2019-05-03T07:49:09.583Z,12.70
2019-05-03T07:51:45.156Z,13.10
2019-05-03T07:54:19.689Z,12.80
2019-05-03T07:56:54.782Z,11.80
2019-05-03T07:59:31.787Z,11.90
2019-05-03T08:02:01.899Z,12.60
2019-05-03T08:04:37.345Z,15.00
2019-05-03T08:07:20.585Z,17.20
2019-05-03T08:09:50.764Z,17.10
2019-05-03T08:12:20.444Z,15.90
2019-05-03T08:14:51.245Z,17.30
2019-05-03T08:17:26.024Z,18.70
2019-05-03T08:20:00.888Z,15.30
2019-05-03T08:22:35.774Z,13.70
2019-05-03T08:25:10.767Z,16.10
2019-05-03T08:27:45.674Z,17.10
2019-05-03T08:30:27.321Z,18.20
2019-05-03T08:33:00.156Z,17.40
2019-05-03T08:35:37.369Z,15.40
2019-05-03T08:38:07.956Z,15.30
2019-05-03T08:40:38.391Z,15.30
2019-05-03T08:43:07.108Z,15.70
2019-05-03T08:45:38.890Z,16.00
2019-05-03T08:48:07.612Z,15.20
2019-05-03T08:50:42.337Z,15.50
2019-05-03T08:53:35.872Z,14.90
2019-05-03T08:56:10.768Z,15.30
2019-05-03T08:58:42.624Z,16.50
2019-05-03T09:01:19.003Z,17.70
2019-05-03T09:03:50.597Z,16.40
2019-05-03T09:06:26.347Z,15.90
2019-05-03T09:09:04.540Z,16.60
2019-05-03T09:11:36.806Z,16.20
2019-05-03T09:14:19.072Z,17.40
2019-05-03T09:16:55.422Z,17.30
2019-05-03T09:19:25.296Z,17.00
2019-05-03T09:21:55.054Z,17.40
2019-05-03T09:24:24.730Z,18.00
2019-05-03T09:27:04.966Z,17.40
2019-05-03T09:29:43.111Z,17.80
2019-05-03T09:32:06.785Z,17.30
2019-05-03T09:34:38.279Z,17.50
2019-05-03T09:37:20.976Z,17.90
2019-05-03T09:39:52.686Z,16.20
2019-05-03T09:42:28.432Z,15.00
2019-05-03T09:45:07.803Z,15.00
2019-05-03T09:47:37.465Z,15.70
2019-05-03T09:50:08.892Z,16.10
2019-05-03T09:52:47.125Z,16.30
2019-05-03T09:55:38.151Z,16.30
2019-05-03T09:58:28.080Z,15.80
2019-05-03T10:00:56.681Z,16.00
2019-05-03T10:03:28.313Z,16.30
2019-05-03T10:06:00.649Z,16.30
2019-05-03T10:08:29.981Z,16.50
2019-05-03T10:11:11.521Z,16.70
2019-05-03T10:13:48.272Z,17.00
2019-05-03T10:16:27.539Z,17.50
2019-05-03T10:18:56.432Z,17.80
2019-05-03T10:21:32.604Z,18.10
2019-05-03T10:30:55.874Z,18.80
2019-05-03T10:33:38.212Z,18.80
2019-05-03T10:36:15.395Z,19.00
2019-05-03T10:38:46.012Z,19.30
2019-05-03T10:41:17.627Z,19.60
2019-05-03T10:43:57.803Z,19.60
2019-05-03T10:46:35.390Z,19.70
2019-05-03T10:49:06.839Z,19.10
2019-05-03T10:51:45.203Z,19.20
2019-05-03T10:54:14.635Z,19.30
2019-05-03T10:57:05.288Z,19.40
2019-05-03T10:59:40.247Z,19.70
2019-05-03T11:02:13.061Z,20.00
2019-05-03T11:04:47.338Z,20.00
2019-05-03T11:07:16.028Z,19.10
2019-05-03T11:09:49.774Z,19.20
2019-05-03T11:12:17.496Z,18.80
2019-05-03T11:14:49.631Z,18.80
2019-05-03T11:17:25.629Z,18.80
2019-05-03T11:20:32.168Z,18.80
2019-05-03T11:23:05.935Z,18.90
2019-05-03T11:25:37.813Z,18.90
2019-05-03T11:28:08.483Z,18.80
2019-05-03T11:31:29.034Z,18.70
2019-05-03T11:33:59.228Z,18.60
2019-05-03T11:36:32.518Z,18.50
2019-05-03T11:39:14.491Z,18.50
2019-05-03T11:41:45.127Z,18.80
2019-05-03T11:44:36.325Z,18.80
2019-05-03T11:47:09.738Z,18.50
2019-05-03T11:50:17.045Z,18.50
2019-05-03T11:52:51.840Z,18.60
2019-05-03T11:55:27.012Z,18.60
2019-05-03T11:58:05.507Z,18.50
2019-05-03T12:00:36.404Z,18.20
2019-05-03T12:03:15.574Z,18.70
2019-05-03T12:06:41.913Z,18.60
2019-05-03T12:09:16.498Z,17.50
2019-05-03T12:11:46.067Z,17.80
2019-05-03T12:14:15.401Z,18.10
2019-05-03T12:17:17.070Z,18.30
2019-05-03T12:19:24.747Z,18.20
2019-05-03T12:22:08.615Z,18.10
2019-05-03T12:24:45.739Z,17.50
2019-05-03T12:27:19.812Z,16.90
2019-05-03T12:29:52.367Z,16.90
2019-05-03T12:32:25.132Z,17.30
2019-05-03T12:35:06.317Z,17.70
2019-05-03T12:37:35.324Z,17.70
2019-05-03T12:40:07.253Z,18.00
2019-05-03T12:42:38.751Z,18.20
2019-05-03T12:45:36.233Z,18.40
2019-05-03T12:48:21.064Z,18.50
2019-05-03T12:50:52.671Z,18.60
2019-05-03T12:53:27.480Z,18.80
2019-05-03T12:56:11.246Z,18.90
2019-05-03T12:58:45.542Z,19.10
2019-05-03T13:01:40.263Z,19.30
2019-05-03T13:04:08.198Z,19.40
2019-05-03T13:06:54.924Z,19.00
2019-05-03T13:09:35.984Z,19.20
2019-05-03T13:12:10.226Z,18.90
2019-05-03T13:14:49.416Z,18.60
2019-05-03T13:17:36.466Z,18.60
2019-05-03T13:20:45.334Z,18.90
2019-05-03T13:23:21.019Z,19.20
2019-05-03T13:25:55.299Z,19.50
2019-05-03T13:28:26.681Z,19.10
2019-05-03T13:31:05.438Z,18.30
2019-05-03T13:33:34.881Z,17.80
2019-05-03T13:36:09.611Z,18.10
2019-05-03T13:38:40.940Z,18.30
2019-05-03T13:41:14.922Z,18.30
2019-05-03T13:43:51.991Z,18.30
2019-05-03T13:46:20.724Z,18.10
2019-05-03T13:48:50.981Z,18.30
2019-05-03T13:51:22.166Z,18.40
2019-05-03T13:53:55.189Z,18.40
2019-05-03T13:56:35.921Z,18.30
2019-05-03T13:59:18.974Z,17.90
2019-05-03T14:01:42.608Z,17.80
2019-05-03T14:04:21.484Z,17.50
2019-05-03T14:06:55.108Z,17.50
2019-05-03T14:09:30.032Z,17.40
2019-05-03T14:12:00.801Z,17.50
2019-05-03T14:14:55.897Z,17.70
2019-05-03T14:17:55.704Z,17.50
2019-05-03T14:20:49.882Z,17.60
2019-05-03T14:23:35.130Z,17.40
2019-05-03T14:26:07.461Z,17.20
2019-05-03T14:28:42.413Z,16.10
2019-05-03T14:31:38.510Z,15.50
2019-05-03T14:34:10.203Z,15.40
2019-05-03T14:36:41.625Z,15.40
2019-05-03T14:39:16.235Z,15.10
2019-05-03T14:41:55.341Z,14.70
2019-05-03T14:44:26.631Z,14.80
2019-05-03T14:47:02.216Z,14.50
2019-05-03T14:49:30.905Z,14.40
2019-05-03T14:51:59.739Z,14.30
2019-05-03T14:54:42.035Z,14.40
2019-05-03T14:57:38.923Z,14.60
2019-05-03T15:00:28.872Z,14.80
2019-05-03T15:02:59.089Z,14.90
2019-05-03T15:05:30.747Z,15.10
2019-05-03T15:08:02.992Z,15.10
2019-05-03T15:10:55.108Z,15.20
2019-05-03T15:13:29.939Z,15.20
2019-05-03T15:16:05.237Z,15.20
2019-05-03T15:18:35.300Z,15.20
2019-05-03T15:21:12.117Z,15.40
2019-05-03T15:23:45.722Z,15.10
2019-05-03T15:26:17.450Z,14.60
2019-05-03T15:29:38.250Z,14.70
2019-05-03T15:32:12.848Z,14.80
2019-05-03T15:34:46.335Z,14.30
2019-05-03T15:37:17.968Z,14.70
2019-05-03T15:40:15.587Z,14.90
2019-05-03T15:43:28.601Z,14.90
2019-05-03T15:46:05.598Z,15.40
2019-05-03T15:48:38.991Z,15.40
2019-05-03T15:51:08.476Z,15.00
2019-05-03T15:53:37.382Z,14.30
2019-05-03T15:56:06.145Z,14.00
2019-05-03T15:58:44.205Z,14.00
2019-05-03T16:01:16.852Z,14.00
2019-05-03T16:03:46.989Z,14.20
2019-05-03T16:06:21.693Z,14.20
2019-05-03T16:09:49.552Z,14.60
2019-05-03T16:12:42.375Z,14.40
2019-05-03T16:15:47.487Z,14.30
2019-05-03T16:18:21.977Z,14.30
2019-05-03T16:20:56.243Z,14.20
2019-05-03T16:23:25.203Z,13.70
2019-05-03T16:26:04.872Z,13.60
2019-05-03T16:28:37.167Z,13.60
2019-05-03T16:31:07.472Z,13.00
2019-05-03T16:33:38.830Z,12.40
2019-05-03T16:36:15.945Z,12.40
2019-05-03T16:38:49.980Z,12.70
2019-05-03T16:41:24.883Z,13.20
2019-05-03T16:43:56.671Z,13.80
2019-05-03T16:46:34.371Z,14.00
2019-05-03T16:49:08.937Z,14.40
2019-05-03T16:51:44.277Z,14.40
2019-05-03T16:54:34.823Z,14.60
2019-05-03T16:57:15.258Z,14.80
2019-05-03T16:59:50.928Z,14.90
2019-05-03T17:02:24.500Z,15.00
2019-05-03T17:04:55.781Z,14.70
2019-05-03T17:07:38.082Z,14.90
2019-05-03T17:10:09.202Z,15.10
2019-05-03T17:12:38.877Z,15.10
2019-05-03T17:15:14.442Z,14.70
2019-05-03T17:17:48.554Z,14.90
2019-05-03T17:20:20.275Z,14.50
2019-05-03T17:22:51.066Z,14.10
2019-05-03T17:25:31.289Z,14.20
2019-05-03T17:28:06.838Z,14.30
2019-05-03T17:30:41.207Z,14.30
2019-05-03T17:33:16.623Z,13.80
2019-05-03T17:35:48.563Z,13.90
2019-05-03T17:38:26.506Z,13.90
2019-05-03T17:41:15.172Z,13.70
2019-05-03T17:47:17.015Z,13.80
2019-05-03T17:50:31.557Z,13.90
2019-05-03T17:53:07.887Z,14.00
2019-05-03T17:55:44.591Z,13.80
2019-05-03T17:58:15.149Z,13.60
2019-05-03T18:00:59.330Z,13.80
2019-05-03T18:03:42.421Z,13.90
2019-05-03T18:06:25.452Z,13.80
2019-05-03T18:09:21.162Z,13.70
2019-05-03T18:11:54.144Z,13.60
2019-05-03T18:14:29.330Z,13.60
2019-05-03T18:17:35.276Z,13.40
2019-05-03T18:20:11.789Z,13.20
2019-05-03T18:22:40.867Z,13.00
2019-05-03T18:25:35.456Z,13.00
2019-05-03T18:28:06.225Z,13.10
2019-05-03T18:30:35.269Z,13.10
2019-05-03T18:33:12.122Z,13.10
2019-05-03T18:35:41.874Z,13.10
2019-05-03T18:38:10.960Z,13.20
2019-05-03T18:40:46.240Z,13.20
2019-05-03T18:43:25.093Z,13.10
2019-05-03T18:46:50.314Z,12.80
2019-05-03T18:49:24.868Z,12.90
2019-05-03T18:52:00.138Z,12.80
2019-05-03T18:54:28.737Z,12.70
2019-05-03T18:57:05.808Z,12.60
2019-05-03T18:59:52.970Z,12.50
2019-05-03T19:02:25.212Z,12.50
2019-05-03T19:05:37.830Z,12.60
2019-05-03T19:08:18.907Z,12.60
2019-05-03T19:10:55.169Z,12.40
2019-05-03T19:14:11.596Z,12.40
2019-05-03T19:16:56.096Z,12.10
2019-05-03T19:20:05.869Z,12.00
2019-05-03T19:22:42.242Z,11.60
2019-05-03T19:25:16.148Z,11.20
2019-05-03T19:27:45.216Z,11.30
2019-05-03T19:30:19.609Z,11.20
2019-05-03T19:32:48.706Z,11.20
2019-05-03T19:35:20.539Z,11.10
2019-05-03T19:37:55.320Z,11.20
2019-05-03T19:40:32.725Z,11.30
2019-05-03T19:43:07.260Z,10.90
2019-05-03T19:45:41.816Z,10.70
2019-05-03T19:48:10.611Z,10.50
2019-05-03T19:51:36.507Z,10.50
2019-05-03T19:54:08.197Z,10.70
2019-05-03T19:56:36.873Z,10.90
2019-05-03T19:59:14.837Z,11.10
2019-05-03T20:01:48.757Z,11.00
2019-05-03T20:04:57.384Z,10.70
2019-05-03T20:07:41.706Z,10.30
2019-05-03T20:10:14.673Z,10.30
2019-05-03T20:12:46.896Z,10.30
2019-05-03T20:15:20.727Z,10.40
2019-05-03T20:17:59.991Z,10.50
2019-05-03T20:20:32.666Z,10.50
2019-05-03T20:23:02.754Z,10.50
2019-05-03T20:25:40.403Z,10.70
2019-05-03T20:28:12.052Z,10.80
2019-05-03T20:30:42.870Z,11.10
2019-05-03T20:33:11.668Z,11.10
2019-05-03T20:35:46.456Z,11.30
2019-05-03T20:38:19.851Z,11.10
2019-05-03T20:40:57.231Z,11.10
2019-05-03T20:43:26.559Z,11.20
2019-05-03T20:46:19.198Z,11.20
2019-05-03T20:48:49.475Z,11.20
2019-05-03T20:51:25.202Z,11.00
2019-05-03T20:54:04.699Z,10.60
2019-05-03T20:56:38.650Z,10.20
2019-05-03T20:59:07.301Z,10.00
2019-05-03T21:01:38.634Z,9.70
2019-05-03T21:04:10.131Z,9.70
2019-05-03T21:06:50.662Z,9.70
2019-05-03T21:09:25.053Z,9.70
2019-05-03T21:11:56.851Z,9.70
2019-05-03T21:14:31.351Z,9.50
2019-05-03T21:17:15.556Z,9.50
2019-05-03T21:19:55.149Z,9.40
2019-05-03T21:22:35.270Z,9.20
2019-05-03T21:25:17.279Z,9.40
2019-05-03T21:27:45.878Z,9.50
2019-05-03T21:30:18.157Z,9.60
2019-05-03T21:32:54.879Z,9.50
2019-05-03T21:35:40.786Z,9.30
2019-05-03T21:38:05.581Z,9.40
2019-05-03T21:41:16.610Z,9.10
2019-05-03T21:43:47.892Z,9.00
2019-05-03T21:46:25.514Z,8.90
2019-05-03T21:49:50.557Z,8.80
2019-05-03T21:52:20.158Z,8.70
2019-05-03T21:54:51.744Z,8.70
2019-05-03T21:57:26.552Z,8.60
2019-05-03T22:00:07.880Z,8.20
2019-05-03T22:02:39.801Z,8.10
2019-05-03T22:05:10.502Z,7.90
2019-05-03T22:07:44.112Z,7.70
2019-05-03T22:10:15.267Z,7.60
2019-05-03T22:12:59.401Z,7.70
2019-05-03T22:15:41.615Z,7.80
2019-05-03T22:18:47.066Z,8.00
2019-05-03T22:21:23.181Z,8.00
2019-05-03T22:24:14.765Z,7.70
2019-05-03T22:26:59.577Z,7.70
2019-05-03T22:29:35.587Z,7.60
2019-05-03T22:32:31.874Z,7.40
2019-05-03T22:35:21.825Z,7.30
2019-05-03T22:38:30.092Z,7.30
2019-05-03T22:40:58.903Z,7.20
2019-05-03T22:43:36.373Z,7.10
2019-05-03T22:46:05.305Z,7.10
2019-05-03T22:48:37.252Z,7.10
2019-05-03T22:51:17.171Z,7.30
2019-05-03T22:53:49.097Z,7.30
2019-05-03T22:56:21.261Z,7.30
2019-05-03T22:58:56.030Z,7.10
2019-05-03T23:01:35.030Z,7.00
2019-05-03T23:04:05.444Z,6.90
2019-05-03T23:06:39.895Z,6.80
2019-05-03T23:09:09.448Z,6.80
2019-05-03T23:11:47.072Z,6.80
2019-05-03T23:14:21.604Z,6.80
2019-05-03T23:16:50.440Z,6.90
2019-05-03T23:19:21.852Z,6.80
2019-05-03T23:25:19.754Z,6.80
2019-05-03T23:27:55.365Z,6.60
2019-05-03T23:30:25.129Z,6.40
2019-05-03T23:33:00.904Z,6.50
2019-05-03T23:35:32.214Z,6.50
2019-05-03T23:38:06.783Z,6.50
2019-05-03T23:40:38.140Z,6.40
2019-05-03T23:43:15.856Z,6.40
2019-05-03T23:45:45.269Z,6.40
2019-05-03T23:48:21.549Z,6.40
2019-05-03T23:50:56.319Z,6.50
2019-05-03T23:54:10.425Z,6.60
2019-05-03T23:56:47.063Z,6.60
2019-05-03T23:59:18.971Z,6.60
